CheckWX is a tool to help pilots better visualize weather data.  It is not intended as a substitute for an official pre-flight weather briefing.

02:51:20 UTC

KDNS METAR
Denison Municipal Airport
Denison, Iowa, USA
Current

16 mins ago

KDNS 230235Z AUTO 00000KT 10SM BKN050 15/15 A3001 RMK AO2
Observed
Sep-23 @ 02:35 UTC
Visibility
10 SM
Flight Rules
VFR
Cloud Levels
  • Broken at 5,000' AGL
Temperature
15°C / 59°F
Dewpoint
15°C / 59°F
Humidity
100%
Altimeter
30.01" Hg
Pressure
1016.22 hPa
Previous

36 mins ago

KDNS 230215Z AUTO 00000KT 10SM BKN055 15/15 A3000 RMK AO2
Observed
Sep-23 @ 02:15 UTC
Visibility
10 SM
Flight Rules
VFR
Cloud Levels
  • Broken at 5,500' AGL
Temperature
15°C / 59°F
Dewpoint
15°C / 59°F
Humidity
100%
Altimeter
30" Hg
Pressure
1015.92 hPa
Previous

56 mins ago

KDNS 230155Z AUTO 00000KT 10SM FEW050 15/15 A3000 RMK AO2
Observed
Sep-23 @ 01:55 UTC
Visibility
10 SM
Flight Rules
VFR
Cloud Levels
  • Few at 5,000' AGL
Temperature
15°C / 59°F
Dewpoint
15°C / 59°F
Humidity
100%
Altimeter
30" Hg
Pressure
1015.92 hPa